• Join FlightAware (Why Join?)
  • Login
  • US Flag 
11:39PM EDT


 

Airport Tracker/Info


-or-


 

Live Flight TrackerFlight Track Log ✈ CMP237 ✈ 03-May-2012 ✈ KMIA - MPTO / PTY

Flight Track Log - Related Links

Times and Time Zones

All times are in EDT time to prevent confusion due to time zone crossing. See the CMP237 flight status page for this flight to view local times or setup timezone preferences in your user account.

Time Position Orientation Groundspeed Altitude Reporting Facility
EDT Latitude Longitude Course Direction KTS MPH feet Rate Location/Type
12:29PM 25.8006 -80.2583 117° Southeast 587 676 800  Level Miami Center
12:31PM 25.7747 -80.2022 125° Southeast 241 277 2,400 1,860 Climbing Miami Center
12:32PM 25.7344 -80.1389 176° South 257 296 4,900 1,980 Climbing Miami Center
12:33PM 25.6489 -80.1319 169° South 277 319 7,100 1,920 Climbing Miami Center
12:37PM 25.3017 -80.0561 161° South 340 391 15,200 2,100 Climbing Miami Center
12:38PM 25.2022 -80.0189 159° South 362 417 17,600 2,160 Climbing Miami Center
12:39PM 25.1028 -79.9775 161° South 375 432 19,600 1,800 Climbing Miami Center
12:40PM 24.9972 -79.9381 161° South 388 447 21,200 1,680 Climbing Miami Center
12:41PM 24.8872 -79.8964 160° South 407 468 23,000 1,740 Climbing Miami Center
12:42PM 24.7733 -79.8500 162° South 420 483 24,700 1,380 Climbing Miami Center
12:43PM 24.6572 -79.8083 161° South 428 493 25,800 1,200 Climbing Miami Center
12:44PM 24.5328 -79.7619 160° South 450 518 27,100 1,380 Climbing Miami Center
12:45PM 24.4103 -79.7136 160° South 462 532 28,600 1,200 Climbing Miami Center
12:46PM 24.2839 -79.6628 162° South 474 545 29,600 1,200 Climbing Miami Center
12:47PM 24.1553 -79.6167 160° South 481 554 31,000 1,380 Climbing Miami Center
12:48PM 24.0267 -79.5661 161° South 481 554 32,400 1,380 Climbing Miami Center
12:56PM 23.1706 -79.2390 177° South  Level FlightAware Approximate
12:57PM 23.0548 -79.2335 178° South  Level FlightAware Approximate
12:58PM 22.9391 -79.2280 178° South  Level FlightAware Approximate
12:59PM 22.8233 -79.2225 178° South  Level FlightAware Approximate
01:00PM 22.7076 -79.2171 178° South  Level FlightAware Approximate
01:01PM 22.5918 -79.2116 178° South  Level FlightAware Approximate
01:02PM 22.4761 -79.2062 178° South  Level FlightAware Approximate
01:03PM 22.3603 -79.2007 178° South  Level FlightAware Approximate
01:04PM 22.2446 -79.1953 178° South  Level FlightAware Approximate
01:05PM 22.1288 -79.1899 180° South  Level FlightAware Approximate
01:06PM 22.0130 -79.1903 180° South  Level FlightAware Approximate
01:07PM 21.8971 -79.1908 180° South  Level FlightAware Approximate
01:08PM 21.7812 -79.1912 180° South  Level FlightAware Approximate
01:09PM 21.6654 -79.1917 180° South  Level FlightAware Approximate
01:10PM 21.5495 -79.1921 180° South  Level FlightAware Approximate
01:11PM 21.4337 -79.1926 180° South  Level FlightAware Approximate
01:12PM 21.3178 -79.1930 180° South  Level FlightAware Approximate
01:13PM 21.2020 -79.1935 180° South  Level FlightAware Approximate
01:14PM 21.0861 -79.1939 180° South  Level FlightAware Approximate
01:15PM 20.9702 -79.1944 180° South  Level FlightAware Approximate
01:16PM 20.8544 -79.1948 180° South  Level FlightAware Approximate
01:17PM 20.7385 -79.1953 180° South  Level FlightAware Approximate
01:18PM 20.6227 -79.1957 180° South  Level FlightAware Approximate
01:19PM 20.5068 -79.1962 180° South  Level FlightAware Approximate
01:20PM 20.3909 -79.1966 180° South  Level FlightAware Approximate
01:21PM 20.2751 -79.1971 180° South  Level FlightAware Approximate
01:22PM 20.1592 -79.1975 180° South  Level FlightAware Approximate
01:23PM 20.0434 -79.1980 180° South  Level FlightAware Approximate
01:24PM 19.9275 -79.1984 180° South  Level FlightAware Approximate
01:25PM 19.8116 -79.1989 180° South  Level FlightAware Approximate
01:26PM 19.6958 -79.1993 180° South  Level FlightAware Approximate
01:27PM 19.5799 -79.1997 180° South  Level FlightAware Approximate
01:28PM 19.4641 -79.2002 180° South  Level FlightAware Approximate
01:29PM 19.3482 -79.2006 180° South  Level FlightAware Approximate
01:30PM 19.2323 -79.2011 180° South  Level FlightAware Approximate
01:31PM 19.1165 -79.2015 180° South  Level FlightAware Approximate
01:32PM 19.0006 -79.2019 180° South  Level FlightAware Approximate
01:33PM 18.8848 -79.2024 180° South  Level FlightAware Approximate
01:34PM 18.7689 -79.2028 180° South  Level FlightAware Approximate
01:35PM 18.6530 -79.2032 180° South  Level FlightAware Approximate
01:36PM 18.5372 -79.2037 180° South  Level FlightAware Approximate
01:37PM 18.4213 -79.2041 182° South  Level FlightAware Approximate
01:38PM 18.3055 -79.2075 182° South  Level FlightAware Approximate
01:39PM 18.1897 -79.2109 182° South  Level FlightAware Approximate
01:40PM 18.0739 -79.2142 182° South  Level FlightAware Approximate
01:41PM 17.9581 -79.2176 182° South  Level FlightAware Approximate
01:42PM 17.8423 -79.2209 182° South  Level FlightAware Approximate
01:43PM 17.7264 -79.2243 182° South  Level FlightAware Approximate
01:44PM 17.6106 -79.2276 182° South  Level FlightAware Approximate
01:45PM 17.4948 -79.2310 182° South  Level FlightAware Approximate
01:46PM 17.3790 -79.2343 182° South  Level FlightAware Approximate
01:47PM 17.2632 -79.2377 182° South  Level FlightAware Approximate
01:48PM 17.1474 -79.2410 182° South  Level FlightAware Approximate
01:49PM 17.0315 -79.2443 182° South  Level FlightAware Approximate
01:50PM 16.9157 -79.2477 182° South  Level FlightAware Approximate
01:51PM 16.7999 -79.2510 182° South  Level FlightAware Approximate
01:52PM 16.6841 -79.2543 182° South  Level FlightAware Approximate
01:53PM 16.5683 -79.2576 182° South  Level FlightAware Approximate
01:54PM 16.4525 -79.2609 182° South  Level FlightAware Approximate
01:55PM 16.3366 -79.2642 182° South  Level FlightAware Approximate
01:56PM 16.2208 -79.2675 182° South  Level FlightAware Approximate
01:57PM 16.1050 -79.2708 182° South  Level FlightAware Approximate
01:58PM 15.9892 -79.2741 182° South  Level FlightAware Approximate
01:59PM 15.8734 -79.2774 182° South  Level FlightAware Approximate
02:00PM 15.7575 -79.2807 182° South  Level FlightAware Approximate
02:01PM 15.6417 -79.2840 182° South  Level FlightAware Approximate
02:02PM 15.5259 -79.2872 182° South  Level FlightAware Approximate
02:03PM 15.4101 -79.2905 182° South  Level FlightAware Approximate
02:04PM 15.2943 -79.2938 182° South  Level FlightAware Approximate
02:05PM 15.1784 -79.2970 182° South  Level FlightAware Approximate
02:06PM 15.0626 -79.3003 134° Southeast  Level FlightAware Approximate
02:07PM 14.9864 -79.2174 182° South  Level FlightAware Approximate
02:08PM 14.8706 -79.2207 182° South  Level FlightAware Approximate
02:09PM 14.7548 -79.2241 182° South  Level FlightAware Approximate
02:10PM 14.6389 -79.2274 182° South  Level FlightAware Approximate
02:11PM 14.5231 -79.2308 182° South  Level FlightAware Approximate
02:12PM 14.4073 -79.2341 182° South  Level FlightAware Approximate
02:13PM 14.2915 -79.2375 182° South  Level FlightAware Approximate
02:14PM 14.1757 -79.2408 182° South  Level FlightAware Approximate
02:15PM 14.0599 -79.2442 182° South  Level FlightAware Approximate
02:16PM 13.9441 -79.2475 182° South  Level FlightAware Approximate
02:17PM 13.8283 -79.2508 182° South  Level FlightAware Approximate
02:18PM 13.7125 -79.2542 182° South  Level FlightAware Approximate
02:19PM 13.5967 -79.2575 182° South  Level FlightAware Approximate
02:20PM 13.4808 -79.2608 182° South  Level FlightAware Approximate
02:21PM 13.3650 -79.2641 182° South  Level FlightAware Approximate
02:22PM 13.2492 -79.2674 182° South  Level FlightAware Approximate
02:23PM 13.1334 -79.2707 182° South  Level FlightAware Approximate
02:24PM 13.0176 -79.2740 182° South  Level FlightAware Approximate
02:25PM 12.9018 -79.2773 182° South  Level FlightAware Approximate
02:26PM 12.7860 -79.2806 182° South  Level FlightAware Approximate
02:27PM 12.6702 -79.2839 182° South  Level FlightAware Approximate
02:28PM 12.5544 -79.2872 182° South  Level FlightAware Approximate
02:29PM 12.4385 -79.2905 182° South  Level FlightAware Approximate
02:30PM 12.3227 -79.2938 182° South  Level FlightAware Approximate
02:31PM 12.2069 -79.2971 182° South  Level FlightAware Approximate
02:32PM 12.0911 -79.3004 182° South  Level FlightAware Approximate
02:33PM 11.9753 -79.3037 182° South  Level FlightAware Approximate
02:34PM 11.8595 -79.3070 182° South  Level FlightAware Approximate
02:35PM 11.7437 -79.3102 182° South  Level FlightAware Approximate
02:36PM 11.6279 -79.3135 182° South  Level FlightAware Approximate
02:37PM 11.5121 -79.3168 231° Southwest  Level FlightAware Approximate
02:38PM 11.4442 -79.4017 180° South  Level FlightAware Approximate
02:39PM 11.3284 -79.4008 180° South  Level FlightAware Approximate
02:40PM 11.2125 -79.3999 180° South  Level FlightAware Approximate
02:41PM 11.0967 -79.3989 197° South  Level FlightAware Approximate
02:42PM 10.9892 -79.4333 184° South  Level FlightAware Approximate
02:43PM 10.8738 -79.4418 184° South  Level FlightAware Approximate
02:44PM 10.7584 -79.4500 180° South  Level FlightAware Approximate
02:45PM 10.6426 -79.4508 177° South  Level FlightAware Approximate
02:46PM 10.5268 -79.4456 186° South  Level FlightAware Approximate
02:47PM 10.4186 -79.4565 175° South  Level FlightAware Approximate
02:48PM 10.3033 -79.4459 177° South  Level FlightAware Approximate
02:49PM 10.1876 -79.4397 177° South  Level FlightAware Approximate
02:50PM 10.0719 -79.4335 177° South  Level FlightAware Approximate
02:51PM 9.9562 -79.4273 175° South  Level FlightAware Approximate
02:52PM 9.8409 -79.4167 177° South  Level FlightAware Approximate
02:53PM 9.7251 -79.4112 180° South  Level FlightAware Approximate
02:54PM 9.6098 -79.4110 177° South  Level FlightAware Approximate
02:55PM 9.4942 -79.4043 174° South  Level FlightAware Approximate
02:56PM 9.3791 -79.3912 176° South  Level FlightAware Approximate
02:57PM 9.2636 -79.3833 180° South  Level FlightAware Approximate
02:58PM 9.1477 -79.3833 169° South  Level FlightAware Approximate
02:59PM 9.0667 -79.3667 286° West  Level FlightAware Approximate
03:00PM 9.0982 -79.4796 106° East  Level Estimated
03:01PM 9.0667 -79.3667 286° West  Level FlightAware Approximate
03:02PM 9.0982 -79.4796 106° East  Level Estimated
03:03PM 9.0667 -79.3667 286° West  Level FlightAware Approximate
03:04PM 9.0982 -79.4796 286° West  Level Estimated